Terminal Aerodrome Forecast
Issued by NWS Green Bay, WI

Home | Current Version | Previous Version | Graphics & Text | Print | Product List | Glossary On
Versions: 1 2 3 4 5 6 7 8 9 10 11 12 13 14 15 16
000
FTUS43 KGRB 291100
TAFGRB
TAF
KGRB 291124Z 2912/3012 28012G18KT P6SM BKN035 BKN060
      TEMPO 2912/2914 BKN030
     FM291600 30011KT P6SM SCT030 BKN050
     FM292200 28004KT P6SM BKN035=

USA.gov is the U.S. government's official web portal to all federal, state and local government web resources and services.